Time;durP1;ratioP1;P1;durP2;ratioP2;P2;SDS_P1;SDS_P2;PMS_P1;PMS_P2;Temp;Humidity;BMP_temperature;BMP_pressure;BME280_temperature;BME280_humidity;BME280_pressure;Samples;Min_cycle;Max_cycle;Signal;HPM_P1;HPM_P2
2023/09/14 00:00:22;;;;;;;4.50;1.63;;;16.10;99.90;;;;;;5068048;28;20203;-79
2023/09/14 00:02:48;;;;;;;7.95;2.55;;;16.10;99.90;;;;;;5068827;28;20025;-79
2023/09/14 00:05:14;;;;;;;7.78;2.20;;;16.10;99.90;;;;;;5067920;28;20090;-79
2023/09/14 00:07:40;;;;;;;5.20;1.75;;;16.20;99.90;;;;;;5068343;28;20060;-79
2023/09/14 00:10:06;;;;;;;8.65;2.08;;;16.20;99.90;;;;;;5067016;28;20079;-79
2023/09/14 00:12:32;;;;;;;10.93;2.13;;;16.20;99.90;;;;;;5067865;28;20067;-79
2023/09/14 00:14:57;;;;;;;6.60;2.25;;;16.10;99.90;;;;;;5060614;28;20474;-79
2023/09/14 00:17:23;;;;;;;5.40;1.92;;;16.20;99.90;;;;;;5059473;28;20043;-80
2023/09/14 00:19:48;;;;;;;5.70;1.63;;;16.20;99.90;;;;;;5068449;28;20026;-80
2023/09/14 00:22:14;;;;;;;7.60;1.70;;;16.30;99.90;;;;;;5068611;28;20056;-80
2023/09/14 00:24:40;;;;;;;5.43;2.00;;;16.20;99.90;;;;;;5067602;28;20020;-79
2023/09/14 00:27:05;;;;;;;6.05;1.60;;;16.20;99.90;;;;;;5068379;28;20469;-78
2023/09/14 00:29:31;;;;;;;4.00;1.92;;;16.30;99.90;;;;;;5066416;28;20028;-79
2023/09/14 00:31:56;;;;;;;4.65;1.63;;;16.20;99.90;;;;;;5068125;28;20070;-79
2023/09/14 00:34:22;;;;;;;7.38;2.15;;;16.20;99.90;;;;;;5067342;28;20470;-79
2023/09/14 00:36:47;;;;;;;8.25;2.45;;;16.20;99.90;;;;;;5068057;28;20102;-79
2023/09/14 00:39:13;;;;;;;9.10;2.20;;;16.30;99.90;;;;;;5056453;28;20025;-79
2023/09/14 00:41:38;;;;;;;8.35;1.50;;;16.30;99.90;;;;;;5058794;28;20107;-79
2023/09/14 00:44:04;;;;;;;4.47;1.63;;;16.30;99.90;;;;;;5069100;28;20029;-79
2023/09/14 00:46:30;;;;;;;9.40;1.83;;;16.20;99.90;;;;;;5061883;28;20029;-79
2023/09/14 00:48:57;;;;;;;3.33;1.70;;;16.20;99.90;;;;;;5069129;28;20078;-79
2023/09/14 00:51:23;;;;;;;6.70;1.90;;;16.20;99.90;;;;;;5068047;28;20033;-79
2023/09/14 00:53:50;;;;;;;4.15;1.90;;;16.20;99.90;;;;;;5068681;28;20031;-79
2023/09/14 00:56:17;;;;;;;8.63;2.05;;;16.20;99.90;;;;;;5071605;28;20123;-79
2023/09/14 00:58:43;;;;;;;4.85;1.98;;;16.20;99.90;;;;;;5071260;28;20020;-78
2023/09/14 01:01:09;;;;;;;4.72;1.80;;;16.20;99.90;;;;;;5070367;28;20423;-79
2023/09/14 01:03:34;;;;;;;5.90;1.60;;;16.20;99.90;;;;;;5067194;28;20048;-79
2023/09/14 01:06:00;;;;;;;8.13;1.85;;;16.20;99.90;;;;;;5060896;28;20025;-79
2023/09/14 01:08:26;;;;;;;5.88;1.73;;;16.20;99.90;;;;;;5068474;28;20055;-79
2023/09/14 01:10:51;;;;;;;7.93;1.83;;;16.20;99.90;;;;;;5070369;28;20047;-79
2023/09/14 01:13:28;;;;;;;8.50;2.20;;;16.30;99.90;;;;;;5071195;28;20025;-79
2023/09/14 01:16:07;;;;;;;5.20;1.83;;;16.30;99.90;;;;;;5058140;28;20036;-79
2023/09/14 01:18:46;;;;;;;5.22;1.80;;;16.30;99.90;;;;;;5052193;28;20115;-79
2023/09/14 01:21:44;;;;;;;6.97;2.65;;;16.30;99.90;;;;;;5050737;28;20497;-80
2023/09/14 01:24:16;;;;;;;7.07;2.05;;;16.30;99.90;;;;;;5066869;28;20438;-79
2023/09/14 01:26:42;;;;;;;10.43;2.03;;;16.30;99.90;;;;;;5046515;28;20020;-79
2023/09/14 01:29:08;;;;;;;7.70;1.98;;;16.20;99.90;;;;;;5057945;28;20051;-79
2023/09/14 01:31:34;;;;;;;4.57;2.13;;;16.20;99.90;;;;;;5071656;28;20024;-79
2023/09/14 01:33:59;;;;;;;4.70;1.67;;;16.30;99.90;;;;;;5062904;28;20028;-79
2023/09/14 01:36:50;;;;;;;4.47;1.48;;;16.20;99.90;;;;;;5055965;28;20096;-79
2023/09/14 01:39:17;;;;;;;6.60;1.80;;;16.20;99.90;;;;;;5052838;28;20112;-79
2023/09/14 01:41:43;;;;;;;7.57;1.67;;;16.20;99.90;;;;;;5054861;28;20025;-79
2023/09/14 01:44:09;;;;;;;3.25;1.58;;;16.10;99.90;;;;;;5058268;28;20024;-79
2023/09/14 01:46:36;;;;;;;3.83;1.42;;;16.10;99.90;;;;;;5057671;28;20028;-79
2023/09/14 01:49:01;;;;;;;4.38;1.55;;;16.10;99.90;;;;;;5057190;28;20023;-79
2023/09/14 01:51:28;;;;;;;5.22;1.48;;;16.10;99.90;;;;;;5057968;28;20432;-79
2023/09/14 01:53:53;;;;;;;12.10;2.72;;;16.10;99.90;;;;;;5055007;28;20059;-79
2023/09/14 01:56:19;;;;;;;5.53;1.77;;;16.10;99.90;;;;;;5058053;28;20053;-79
2023/09/14 01:58:44;;;;;;;6.65;2.13;;;16.10;99.90;;;;;;5056997;28;20017;-79
2023/09/14 02:01:10;;;;;;;8.32;1.80;;;16.10;99.90;;;;;;5054471;28;20082;-79
2023/09/14 02:03:35;;;;;;;5.32;1.80;;;16.00;99.90;;;;;;5058115;28;20817;-79
2023/09/14 02:06:02;;;;;;;5.72;2.20;;;16.00;99.90;;;;;;5051005;28;20025;-79
2023/09/14 02:08:30;;;;;;;5.43;1.30;;;15.90;99.90;;;;;;5055984;28;20022;-79
2023/09/14 02:10:56;;;;;;;6.63;2.40;;;15.90;99.90;;;;;;5055463;28;20067;-79
2023/09/14 02:13:21;;;;;;;5.05;1.60;;;15.90;99.90;;;;;;5055531;28;20801;-79
2023/09/14 02:15:47;;;;;;;4.88;1.60;;;15.80;99.90;;;;;;5055418;28;20063;-79
2023/09/14 02:18:12;;;;;;;5.55;1.50;;;15.70;99.90;;;;;;5067623;28;20017;-79
2023/09/14 02:20:41;;;;;;;5.32;1.77;;;15.80;99.90;;;;;;5070193;28;20076;-79
2023/09/14 02:23:07;;;;;;;6.43;1.55;;;15.70;99.90;;;;;;5069744;28;20158;-79
2023/09/14 02:25:33;;;;;;;8.95;1.65;;;15.60;99.90;;;;;;5070296;28;20528;-79
2023/09/14 02:27:58;;;;;;;7.53;2.28;;;15.50;99.90;;;;;;5056512;28;20032;-79
2023/09/14 02:30:26;;;;;;;6.25;1.98;;;15.50;99.90;;;;;;5069886;28;20031;-78
2023/09/14 02:32:52;;;;;;;7.97;1.77;;;15.40;99.90;;;;;;5068601;28;20016;-79
2023/09/14 02:35:17;;;;;;;4.65;1.80;;;15.40;99.90;;;;;;5068906;28;20025;-79
2023/09/14 02:37:44;;;;;;;7.03;1.65;;;15.30;99.90;;;;;;5068222;28;20028;-79
2023/09/14 02:40:10;;;;;;;7.55;1.90;;;15.30;99.90;;;;;;5069306;28;20016;-79
2023/09/14 02:42:37;;;;;;;5.95;2.13;;;15.20;99.90;;;;;;5067331;28;20085;-80
2023/09/14 02:45:04;;;;;;;7.40;2.40;;;15.20;99.90;;;;;;5069138;28;20039;-80
2023/09/14 02:47:29;;;;;;;6.68;2.08;;;15.20;99.90;;;;;;5067423;28;20029;-80
2023/09/14 02:49:55;;;;;;;7.90;2.50;;;15.10;99.90;;;;;;5068126;28;20099;-80
2023/09/14 02:52:20;;;;;;;7.63;1.73;;;15.00;99.90;;;;;;5056912;28;20821;-79
2023/09/14 02:54:46;;;;;;;5.70;1.90;;;15.00;99.90;;;;;;5060815;28;20488;-79
2023/09/14 02:57:12;;;;;;;10.10;2.97;;;15.00;99.90;;;;;;5066012;28;20043;-79
2023/09/14 02:59:37;;;;;;;4.60;1.65;;;14.90;99.90;;;;;;5067846;28;20024;-79
2023/09/14 03:02:03;;;;;;;5.13;1.73;;;14.90;99.90;;;;;;5067211;28;20100;-79
2023/09/14 03:04:30;;;;;;;5.47;1.60;;;14.90;99.90;;;;;;5067865;28;20053;-79
2023/09/14 03:06:56;;;;;;;7.30;2.20;;;14.80;99.90;;;;;;5065113;28;20028;-79
2023/09/14 03:09:22;;;;;;;4.43;1.65;;;14.80;99.90;;;;;;5068681;28;20025;-79
2023/09/14 03:11:47;;;;;;;6.80;2.30;;;14.80;99.90;;;;;;5067721;28;20473;-79
2023/09/14 03:14:13;;;;;;;5.85;1.88;;;14.70;99.90;;;;;;5068736;28;20444;-79
2023/09/14 03:16:38;;;;;;;4.75;1.88;;;14.60;99.90;;;;;;5054208;28;20420;-79
2023/09/14 03:19:04;;;;;;;8.20;2.45;;;14.60;99.90;;;;;;5068484;28;20064;-79
2023/09/14 03:21:30;;;;;;;4.88;1.95;;;14.60;99.90;;;;;;5067423;28;20027;-79
2023/09/14 03:23:56;;;;;;;6.78;1.85;;;14.50;99.90;;;;;;5069331;28;20036;-79
2023/09/14 03:26:27;;;;;;;4.43;1.55;;;14.50;99.90;;;;;;5068278;28;20024;-79
2023/09/14 03:28:53;;;;;;;3.33;1.75;;;14.50;99.90;;;;;;5068875;28;20032;-79
2023/09/14 03:31:19;;;;;;;5.45;2.50;;;14.40;99.90;;;;;;5066086;28;20476;-79
2023/09/14 03:33:50;;;;;;;5.28;1.92;;;14.40;99.90;;;;;;5068620;28;20055;-79
2023/09/14 03:36:16;;;;;;;5.63;2.25;;;14.40;99.90;;;;;;5065154;28;20039;-79
2023/09/14 03:38:42;;;;;;;6.38;2.63;;;14.30;99.90;;;;;;5061381;28;20027;-79
2023/09/14 03:41:08;;;;;;;6.97;2.50;;;14.30;99.90;;;;;;5068181;28;20021;-79
2023/09/14 03:43:33;;;;;;;10.98;2.72;;;14.20;99.90;;;;;;5069033;28;20016;-79
2023/09/14 03:45:59;;;;;;;4.78;2.25;;;14.20;99.90;;;;;;5067274;28;20023;-79
2023/09/14 03:48:25;;;;;;;5.13;1.98;;;14.20;99.90;;;;;;5068774;28;20377;-79
2023/09/14 03:50:52;;;;;;;5.25;2.05;;;14.10;99.90;;;;;;5067517;28;20020;-79
2023/09/14 03:53:18;;;;;;;5.07;2.10;;;14.10;99.90;;;;;;5067720;28;20029;-79
2023/09/14 03:55:43;;;;;;;5.68;2.58;;;14.10;99.90;;;;;;5063289;28;20052;-79
2023/09/14 03:58:09;;;;;;;4.95;2.50;;;14.10;99.90;;;;;;5060941;28;20021;-79
2023/09/14 04:00:35;;;;;;;6.85;2.40;;;14.00;99.90;;;;;;5067628;28;20028;-79
2023/09/14 04:03:00;;;;;;;5.57;2.13;;;14.00;99.90;;;;;;5068384;28;20021;-79
2023/09/14 04:05:26;;;;;;;7.55;2.78;;;14.00;99.90;;;;;;5068482;28;20025;-79
2023/09/14 04:07:51;;;;;;;5.90;2.33;;;14.00;99.90;;;;;;5068789;28;20364;-79
2023/09/14 04:10:17;;;;;;;5.53;2.17;;;13.90;99.90;;;;;;5050816;28;20482;-79
2023/09/14 04:12:43;;;;;;;6.55;2.75;;;13.90;99.90;;;;;;5049188;28;20025;-79
2023/09/14 04:15:10;;;;;;;4.63;2.80;;;13.90;99.90;;;;;;5050038;28;20037;-79
2023/09/14 04:17:36;;;;;;;7.40;2.50;;;13.90;99.90;;;;;;5064257;28;20595;-80
2023/09/14 04:20:09;;;;;;;6.93;2.78;;;13.90;99.90;;;;;;5053275;28;20041;-79
2023/09/14 04:22:38;;;;;;;6.35;2.10;;;13.80;99.90;;;;;;5052097;28;20029;-79
2023/09/14 04:25:06;;;;;;;4.60;1.95;;;13.80;99.90;;;;;;5065095;28;20032;-80
2023/09/14 04:27:31;;;;;;;8.75;2.08;;;13.80;99.90;;;;;;5072210;28;20081;-79
2023/09/14 04:29:57;;;;;;;5.82;2.80;;;13.80;99.90;;;;;;5072184;28;20473;-79
2023/09/14 04:32:22;;;;;;;4.50;2.78;;;13.80;99.90;;;;;;5071692;28;20034;-78
2023/09/14 04:34:48;;;;;;;8.18;2.53;;;13.70;99.90;;;;;;5071883;28;20052;-79
2023/09/14 04:37:14;;;;;;;5.65;2.78;;;13.70;99.90;;;;;;5071274;28;20034;-79
2023/09/14 04:39:39;;;;;;;6.30;2.72;;;13.70;99.90;;;;;;5071603;28;20485;-79
2023/09/14 04:42:05;;;;;;;7.93;2.92;;;13.70;99.90;;;;;;5069992;28;20091;-78
2023/09/14 04:44:31;;;;;;;5.63;2.65;;;13.70;99.90;;;;;;5071578;28;20108;-79
2023/09/14 04:46:56;;;;;;;7.43;2.90;;;13.70;99.90;;;;;;5058047;28;20032;-79
2023/09/14 04:49:22;;;;;;;4.88;2.13;;;13.60;99.90;;;;;;5071504;28;20025;-79
2023/09/14 04:51:47;;;;;;;4.13;2.15;;;13.60;99.90;;;;;;5070580;28;20705;-79
2023/09/14 04:54:13;;;;;;;6.60;2.50;;;13.60;99.90;;;;;;5071368;28;20095;-80
2023/09/14 04:56:38;;;;;;;4.32;2.20;;;13.60;99.90;;;;;;5057733;28;20075;-79
2023/09/14 04:59:04;;;;;;;3.25;2.20;;;13.60;99.90;;;;;;5069758;28;20024;-79
2023/09/14 05:01:30;;;;;;;5.10;2.60;;;13.60;99.90;;;;;;5062720;28;20021;-79
2023/09/14 05:03:56;;;;;;;6.72;3.10;;;13.60;99.90;;;;;;5071514;28;20039;-79
2023/09/14 05:06:21;;;;;;;4.97;2.72;;;13.60;99.90;;;;;;5069957;28;20151;-78
2023/09/14 05:08:47;;;;;;;7.35;2.53;;;13.50;99.90;;;;;;5069939;28;20028;-79
2023/09/14 05:11:12;;;;;;;10.05;3.33;;;13.50;99.90;;;;;;5069898;28;20029;-79
2023/09/14 05:13:38;;;;;;;5.75;3.10;;;13.50;99.90;;;;;;5070449;28;20465;-79
2023/09/14 05:16:03;;;;;;;5.28;3.22;;;13.50;99.90;;;;;;5054946;28;20024;-79
2023/09/14 05:18:29;;;;;;;8.45;3.33;;;13.60;99.90;;;;;;5051533;28;20029;-79
2023/09/14 05:20:55;;;;;;;6.93;3.22;;;13.50;99.90;;;;;;5051813;28;20378;-79
2023/09/14 05:23:20;;;;;;;7.95;3.88;;;13.50;99.90;;;;;;5051839;28;20021;-79
2023/09/14 05:25:46;;;;;;;5.88;3.47;;;13.50;99.90;;;;;;5051151;28;20025;-79
2023/09/14 05:28:13;;;;;;;8.65;3.53;;;13.60;99.90;;;;;;5050814;28;20488;-79
2023/09/14 05:30:39;;;;;;;9.18;4.25;;;13.60;99.90;;;;;;5051580;28;20063;-79
2023/09/14 05:33:05;;;;;;;6.13;3.35;;;13.60;99.90;;;;;;5050268;28;20474;-79
2023/09/14 05:35:31;;;;;;;13.25;4.07;;;13.60;99.90;;;;;;5051867;28;20021;-79
2023/09/14 05:37:57;;;;;;;8.43;3.40;;;13.60;99.90;;;;;;5051591;28;20474;-79
2023/09/14 05:40:22;;;;;;;11.07;4.15;;;13.60;99.90;;;;;;5066871;28;20017;-79
2023/09/14 05:42:48;;;;;;;6.28;3.13;;;13.60;99.90;;;;;;5070046;28;20500;-78
2023/09/14 05:45:13;;;;;;;7.10;3.92;;;13.70;99.90;;;;;;5070720;28;20052;-79
2023/09/14 05:47:39;;;;;;;8.15;3.53;;;13.70;99.90;;;;;;5070707;28;20028;-79
2023/09/14 05:50:08;;;;;;;6.80;3.85;;;13.70;99.90;;;;;;5070895;28;20086;-79
2023/09/14 05:52:35;;;;;;;8.93;4.45;;;13.70;99.90;;;;;;5037072;28;20021;-78
2023/09/14 05:55:00;;;;;;;9.70;3.97;;;13.80;99.90;;;;;;5040367;28;20727;-78
2023/09/14 05:57:26;;;;;;;6.32;3.85;;;13.80;99.90;;;;;;5040105;28;20044;-79
2023/09/14 05:59:52;;;;;;;7.63;4.30;;;13.80;99.90;;;;;;5059890;28;20025;-78
2023/09/14 06:02:19;;;;;;;6.82;3.60;;;13.90;99.90;;;;;;5058558;28;20016;-78
2023/09/14 06:04:47;;;;;;;10.73;5.72;;;13.90;99.90;;;;;;5068656;28;20047;-78
2023/09/14 06:07:13;;;;;;;8.77;3.83;;;14.00;99.90;;;;;;5067373;28;20023;-77
2023/09/14 06:09:38;;;;;;;9.75;4.80;;;14.00;99.90;;;;;;5063083;28;20037;-73
2023/09/14 06:12:04;;;;;;;11.13;5.32;;;14.00;99.90;;;;;;5066882;28;20016;-73
2023/09/14 06:14:30;;;;;;;13.93;4.50;;;14.10;99.90;;;;;;5068299;28;20036;-72
2023/09/14 06:16:55;;;;;;;7.47;4.45;;;14.10;99.90;;;;;;5057501;28;20089;-72
2023/09/14 06:19:21;;;;;;;7.80;4.95;;;14.20;99.90;;;;;;5069885;28;20485;-72
2023/09/14 06:21:47;;;;;;;11.18;4.88;;;14.20;99.90;;;;;;5069297;28;20430;-73
2023/09/14 06:24:12;;;;;;;8.80;4.82;;;14.30;99.90;;;;;;5085540;28;20021;-73
2023/09/14 06:26:39;;;;;;;8.00;4.68;;;14.30;99.90;;;;;;5069761;28;20186;-72
2023/09/14 06:29:04;;;;;;;10.00;5.75;;;14.30;99.90;;;;;;5084628;28;20430;-73
2023/09/14 06:31:30;;;;;;;8.35;4.63;;;14.30;99.90;;;;;;5051849;28;20060;-73
2023/09/14 06:33:56;;;;;;;8.65;5.00;;;14.40;99.90;;;;;;5063693;28;20085;-73
2023/09/14 06:36:21;;;;;;;7.95;4.53;;;14.50;99.90;;;;;;5069819;28;20031;-73
2023/09/14 06:38:48;;;;;;;11.85;4.75;;;14.50;99.90;;;;;;5049744;28;20116;-72
2023/09/14 06:41:14;;;;;;;12.65;4.85;;;14.50;99.90;;;;;;5057888;28;20017;-72
2023/09/14 06:43:46;;;;;;;13.77;5.35;;;14.60;99.90;;;;;;5061390;28;20470;-72
2023/09/14 06:46:12;;;;;;;6.13;4.13;;;14.60;99.90;;;;;;5051613;28;20492;-73
2023/09/14 06:48:39;;;;;;;11.35;4.32;;;14.70;99.90;;;;;;5057663;28;20032;-72
2023/09/14 06:51:05;;;;;;;6.93;3.92;;;14.70;99.90;;;;;;5060430;28;20389;-72
2023/09/14 06:53:34;;;;;;;9.07;4.43;;;14.80;99.90;;;;;;5061092;28;20032;-72
2023/09/14 06:56:13;;;;;;;10.27;4.45;;;14.80;99.90;;;;;;5060471;28;20041;-72
2023/09/14 06:58:39;;;;;;;7.72;4.35;;;14.90;99.90;;;;;;5057988;28;20028;-73
2023/09/14 07:01:05;;;;;;;9.68;4.07;;;14.90;99.90;;;;;;5059516;28;20024;-73
2023/09/14 07:03:32;;;;;;;9.20;4.93;;;15.00;99.90;;;;;;5053377;28;20029;-73
2023/09/14 07:05:58;;;;;;;6.20;2.88;;;15.00;99.90;;;;;;5054660;28;20108;-73
2023/09/14 07:08:24;;;;;;;10.00;4.32;;;15.10;99.90;;;;;;5059243;28;20049;-72
2023/09/14 07:10:50;;;;;;;6.30;3.80;;;15.20;99.90;;;;;;5055902;28;20101;-72
2023/09/14 07:13:16;;;;;;;8.02;3.75;;;15.30;99.90;;;;;;5061535;28;20478;-73
2023/09/14 07:15:42;;;;;;;10.80;4.13;;;15.40;99.90;;;;;;5050814;28;20470;-72
2023/09/14 07:18:10;;;;;;;9.80;4.20;;;15.50;99.90;;;;;;5049238;28;20071;-72
2023/09/14 07:20:35;;;;;;;7.93;4.05;;;15.60;99.90;;;;;;5049745;28;20036;-72
2023/09/14 07:23:01;;;;;;;12.63;4.10;;;15.70;99.90;;;;;;5048120;28;20017;-73
2023/09/14 07:25:28;;;;;;;7.60;3.22;;;15.80;99.90;;;;;;5050032;28;20044;-72
2023/09/14 07:27:53;;;;;;;8.45;3.33;;;15.90;99.90;;;;;;5049153;28;20016;-72
2023/09/14 07:30:19;;;;;;;7.32;3.40;;;16.00;99.90;;;;;;5058499;28;20037;-72
2023/09/14 07:32:44;;;;;;;9.02;3.55;;;16.10;99.90;;;;;;5054262;28;20032;-72
2023/09/14 07:35:11;;;;;;;8.80;3.10;;;16.20;99.90;;;;;;5052965;28;20104;-72
2023/09/14 07:37:37;;;;;;;8.57;3.83;;;16.10;99.90;;;;;;5055337;28;20035;-72
2023/09/14 07:40:04;;;;;;;9.43;3.72;;;16.10;99.90;;;;;;5049608;28;20025;-72
2023/09/14 07:42:29;;;;;;;9.07;4.00;;;16.10;99.90;;;;;;5052247;28;20088;-72
2023/09/14 07:44:55;;;;;;;9.15;3.72;;;16.20;99.90;;;;;;5050037;28;20025;-72
2023/09/14 07:47:24;;;;;;;9.23;3.35;;;16.20;99.90;;;;;;5052753;28;20017;-72
2023/09/14 07:49:50;;;;;;;9.48;3.80;;;16.20;99.90;;;;;;5050267;28;20028;-73
2023/09/14 07:52:15;;;;;;;8.45;3.67;;;16.20;99.90;;;;;;5052820;28;20023;-73
2023/09/14 07:54:41;;;;;;;7.70;2.63;;;16.30;99.90;;;;;;5056312;28;20111;-73
2023/09/14 07:57:06;;;;;;;13.70;3.97;;;16.40;99.90;;;;;;5057711;28;20051;-73
2023/09/14 07:59:32;;;;;;;6.82;4.50;;;16.40;99.90;;;;;;5080067;28;20060;-73
2023/09/14 08:01:57;;;;;;;7.00;3.72;;;16.50;99.90;;;;;;5063419;28;20021;-73
2023/09/14 08:04:23;;;;;;;7.75;3.38;;;16.50;99.90;;;;;;5055881;28;20013;-73
2023/09/14 08:06:49;;;;;;;11.35;5.63;;;16.60;99.90;;;;;;5078305;28;20066;-73
2023/09/14 08:09:14;;;;;;;7.85;3.25;;;16.70;99.90;;;;;;5065961;28;20050;-73
2023/09/14 08:11:42;;;;;;;12.68;5.10;;;16.70;99.90;;;;;;5057055;28;20531;-73
2023/09/14 08:14:07;;;;;;;8.95;3.88;;;16.70;99.90;;;;;;5073693;28;20416;-73
2023/09/14 08:16:33;;;;;;;9.88;3.78;;;16.80;99.90;;;;;;5051673;28;20108;-73
2023/09/14 08:18:59;;;;;;;8.10;3.40;;;16.80;99.90;;;;;;5066421;28;20036;-72
2023/09/14 08:21:26;;;;;;;14.13;4.53;;;16.90;99.90;;;;;;5060322;28;20012;-73
2023/09/14 08:23:53;;;;;;;8.57;3.38;;;16.90;99.90;;;;;;5066993;28;20013;-73
2023/09/14 08:26:19;;;;;;;10.90;4.40;;;17.00;99.90;;;;;;5053638;28;20067;-73
2023/09/14 08:28:44;;;;;;;11.43;3.63;;;17.00;99.90;;;;;;5055895;28;20052;-74
2023/09/14 08:31:10;;;;;;;10.45;3.15;;;17.10;99.90;;;;;;5052865;28;20717;-74
2023/09/14 08:33:35;;;;;;;6.75;3.15;;;17.20;99.90;;;;;;5057510;28;20482;-74
2023/09/14 08:36:01;;;;;;;9.15;3.75;;;17.20;99.90;;;;;;5060520;28;20690;-74
2023/09/14 08:38:26;;;;;;;7.03;3.00;;;17.30;99.90;;;;;;5078162;28;20024;-74
2023/09/14 08:40:54;;;;;;;10.88;3.72;;;17.30;99.90;;;;;;5059114;28;20092;-73
2023/09/14 08:43:20;;;;;;;10.90;3.95;;;17.40;99.90;;;;;;5063103;28;20079;-74
2023/09/14 08:45:46;;;;;;;13.57;5.20;;;17.50;99.90;;;;;;5059520;28;20502;-74
2023/09/14 08:48:14;;;;;;;10.73;4.00;;;17.50;99.90;;;;;;5063858;28;20031;-74
2023/09/14 08:50:43;;;;;;;14.63;4.30;;;17.50;99.90;;;;;;5057957;28;20048;-74
2023/09/14 08:53:12;;;;;;;11.75;4.07;;;17.60;99.90;;;;;;5054124;28;20075;-74
2023/09/14 08:55:38;;;;;;;8.52;4.28;;;17.70;99.90;;;;;;5052859;28;20037;-74
2023/09/14 08:58:04;;;;;;;14.18;4.97;;;17.70;99.90;;;;;;5053152;28;20079;-74
2023/09/14 09:00:31;;;;;;;8.63;4.22;;;17.80;99.90;;;;;;5046182;28;20049;-73
2023/09/14 09:02:57;;;;;;;9.05;4.47;;;17.80;99.90;;;;;;5058963;28;20032;-73
2023/09/14 09:05:24;;;;;;;9.15;4.95;;;17.90;99.90;;;;;;5058781;28;20028;-73
2023/09/14 09:07:51;;;;;;;11.25;4.20;;;17.90;99.90;;;;;;5055132;28;20104;-73
2023/09/14 09:10:21;;;;;;;11.45;4.85;;;18.00;99.90;;;;;;5068501;28;20020;-73
2023/09/14 09:12:49;;;;;;;7.22;4.10;;;18.00;99.90;;;;;;5055115;28;20044;-73
2023/09/14 09:15:15;;;;;;;8.60;4.88;;;18.00;99.90;;;;;;5064084;28;20021;-73
2023/09/14 09:17:41;;;;;;;8.88;4.05;;;18.10;99.90;;;;;;5049832;28;20138;-73
2023/09/14 09:20:22;;;;;;;8.98;4.00;;;18.10;99.90;;;;;;5048229;28;20037;-73
2023/09/14 09:22:50;;;;;;;11.95;4.57;;;18.20;99.90;;;;;;5048366;28;20025;-73
2023/09/14 09:25:17;;;;;;;6.90;4.35;;;18.20;99.90;;;;;;5059020;28;20048;-74
2023/09/14 09:27:43;;;;;;;8.57;4.35;;;18.30;99.90;;;;;;5062998;28;20382;-74
2023/09/14 09:30:10;;;;;;;10.93;4.10;;;18.30;99.90;;;;;;5060622;28;20028;-73
2023/09/14 09:32:42;;;;;;;7.57;3.92;;;18.40;99.90;;;;;;5062846;28;20067;-73
2023/09/14 09:35:23;;;;;;;5.18;3.47;;;18.40;99.80;;;;;;5068145;28;20028;-73
2023/09/14 09:37:50;;;;;;;7.00;4.60;;;18.50;99.80;;;;;;5055339;28;20086;-74
2023/09/14 09:40:20;;;;;;;14.95;5.68;;;18.60;99.80;;;;;;5054186;28;20100;-73
2023/09/14 09:42:47;;;;;;;9.85;3.95;;;18.60;99.50;;;;;;5049910;28;20096;-72
2023/09/14 09:45:14;;;;;;;12.52;4.88;;;18.70;99.50;;;;;;5050795;28;20025;-73
2023/09/14 09:47:41;;;;;;;11.43;4.57;;;18.90;99.40;;;;;;5051428;28;20021;-72
2023/09/14 09:50:12;;;;;;;10.48;3.85;;;19.10;99.20;;;;;;5048850;28;20553;-72
2023/09/14 09:52:42;;;;;;;7.65;3.53;;;19.20;98.80;;;;;;5050772;28;20457;-72
2023/09/14 09:55:17;;;;;;;8.40;4.88;;;19.30;98.60;;;;;;5056870;28;20040;-73
2023/09/14 09:57:52;;;;;;;13.38;4.75;;;19.30;98.40;;;;;;5059843;28;20079;-73
2023/09/14 10:00:19;;;;;;;11.27;4.40;;;19.30;98.10;;;;;;5067558;28;20078;-72
2023/09/14 10:02:46;;;;;;;9.30;4.57;;;19.20;98.10;;;;;;5067458;28;20027;-73
2023/09/14 10:05:12;;;;;;;7.90;4.32;;;19.20;98.10;;;;;;5058061;28;20017;-73
2023/09/14 10:07:41;;;;;;;8.25;3.38;;;19.20;98.10;;;;;;5065746;28;20410;-73
2023/09/14 10:10:08;;;;;;;5.40;3.20;;;19.20;98.20;;;;;;5050621;28;20108;-73
2023/09/14 10:12:38;;;;;;;10.05;3.85;;;19.30;98.20;;;;;;5051752;28;20488;-73
2023/09/14 10:15:05;;;;;;;7.63;3.95;;;19.40;98.10;;;;;;5059179;28;20119;-72
2023/09/14 10:17:31;;;;;;;5.20;3.30;;;19.40;98.00;;;;;;5058461;28;20017;-72
2023/09/14 10:20:01;;;;;;;7.78;3.22;;;19.40;97.70;;;;;;5067157;28;20534;-72
2023/09/14 10:22:28;;;;;;;7.38;3.58;;;19.50;97.70;;;;;;5069412;28;20538;-72
2023/09/14 10:24:58;;;;;;;7.75;3.70;;;19.50;97.80;;;;;;5067573;28;20093;-73
2023/09/14 10:27:27;;;;;;;7.85;4.28;;;19.60;97.70;;;;;;5067370;28;20028;-73
2023/09/14 10:29:56;;;;;;;7.50;3.92;;;19.70;97.60;;;;;;5066468;28;20167;-73
2023/09/14 10:32:23;;;;;;;7.32;3.85;;;19.90;97.40;;;;;;5063661;28;20021;-72
2023/09/14 10:34:50;;;;;;;6.13;3.22;;;20.20;97.30;;;;;;5063446;28;20024;-73
2023/09/14 10:37:18;;;;;;;4.97;2.78;;;20.40;96.60;;;;;;5054682;28;20104;-73
2023/09/14 10:39:45;;;;;;;5.88;3.13;;;20.60;96.20;;;;;;5057202;28;20029;-73
2023/09/14 10:42:10;;;;;;;6.75;2.45;;;20.60;96.10;;;;;;5062201;28;20103;-73
2023/09/14 10:44:36;;;;;;;6.68;2.33;;;20.80;95.80;;;;;;5059360;28;20446;-72
2023/09/14 10:47:03;;;;;;;7.63;2.90;;;21.00;95.70;;;;;;5061988;28;20021;-73
2023/09/14 10:49:33;;;;;;;7.28;2.65;;;21.00;95.10;;;;;;5056941;28;20111;-72
2023/09/14 10:51:59;;;;;;;6.68;2.58;;;21.10;94.80;;;;;;5056921;28;20031;-73
2023/09/14 10:54:26;;;;;;;6.35;2.30;;;21.10;94.20;;;;;;5077682;28;20021;-73
2023/09/14 10:57:00;;;;;;;5.22;2.15;;;21.00;94.20;;;;;;5061140;28;20040;-73
2023/09/14 10:59:52;;;;;;;7.28;2.67;;;20.90;94.20;;;;;;5049926;28;20150;-72
2023/09/14 11:02:39;;;;;;;9.23;2.40;;;20.80;94.20;;;;;;5049148;28;20017;-73
2023/09/14 11:05:11;;;;;;;3.33;1.70;;;20.70;94.30;;;;;;5053231;28;20107;-73
2023/09/14 11:07:39;;;;;;;5.47;1.80;;;20.60;94.60;;;;;;5057150;28;20142;-72
2023/09/14 11:10:06;;;;;;;6.38;3.13;;;20.60;94.70;;;;;;5058623;28;20104;-73
2023/09/14 11:12:33;;;;;;;5.22;2.65;;;20.50;94.40;;;;;;5079516;28;20024;-73
2023/09/14 11:15:15;;;;;;;7.57;2.35;;;20.50;94.50;;;;;;5059245;28;20036;-72
2023/09/14 11:17:45;;;;;;;5.40;2.25;;;20.60;94.20;;;;;;5049111;28;20021;-73
2023/09/14 11:20:22;;;;;;;5.35;2.58;;;20.50;94.10;;;;;;5051004;28;20491;-75
2023/09/14 11:22:49;;;;;;;6.03;2.90;;;20.50;94.20;;;;;;5058054;28;20036;-74
2023/09/14 11:25:43;;;;;;;8.52;2.90;;;20.60;94.20;;;;;;5056474;28;20049;-73
2023/09/14 11:28:20;;;;;;;3.85;2.40;;;20.60;94.10;;;;;;5053957;28;20107;-74
2023/09/14 11:30:49;;;;;;;7.20;2.38;;;20.70;94.10;;;;;;5051611;28;20028;-73
2023/09/14 11:33:16;;;;;;;3.75;1.73;;;20.70;94.10;;;;;;5054103;28;20060;-74
2023/09/14 11:35:50;;;;;;;6.63;1.98;;;20.70;94.00;;;;;;5057227;28;20059;-74
2023/09/14 11:38:18;;;;;;;3.65;1.58;;;20.70;93.80;;;;;;5054333;28;20488;-75
2023/09/14 11:40:44;;;;;;;6.20;2.00;;;20.80;93.30;;;;;;5056379;28;20021;-74
2023/09/14 11:43:20;;;;;;;5.15;2.45;;;20.70;93.10;;;;;;5054979;28;20021;-72
2023/09/14 11:45:46;;;;;;;3.97;2.20;;;20.70;92.80;;;;;;5057453;28;20024;-73
2023/09/14 11:48:13;;;;;;;4.90;2.33;;;20.70;93.10;;;;;;5059464;28;20028;-73
2023/09/14 11:50:43;;;;;;;5.38;2.08;;;20.70;93.20;;;;;;5060479;28;20501;-73
2023/09/14 11:53:10;;;;;;;5.88;2.58;;;20.80;93.20;;;;;;5064034;28;20035;-73
2023/09/14 11:55:39;;;;;;;7.95;3.20;;;20.90;93.20;;;;;;5061954;28;20053;-73
2023/09/14 11:58:05;;;;;;;5.18;2.40;;;20.80;92.80;;;;;;5064078;28;20123;-73
2023/09/14 12:00:37;;;;;;;4.82;2.70;;;20.70;92.80;;;;;;5061727;28;20028;-73
2023/09/14 12:03:03;;;;;;;5.97;2.50;;;20.70;92.80;;;;;;5072913;28;20025;-73
2023/09/14 12:05:30;;;;;;;6.90;2.05;;;20.60;93.00;;;;;;5054708;28;20478;-73
2023/09/14 12:07:56;;;;;;;4.13;2.20;;;20.60;93.10;;;;;;5060986;28;20028;-73
2023/09/14 12:10:23;;;;;;;8.20;3.55;;;20.70;93.30;;;;;;5056430;28;20021;-73
2023/09/14 12:12:49;;;;;;;5.28;2.35;;;20.70;93.40;;;;;;5061861;28;20025;-73
2023/09/14 12:15:22;;;;;;;4.28;2.40;;;20.70;93.30;;;;;;5053374;28;20390;-74
2023/09/14 12:17:52;;;;;;;4.53;2.45;;;20.80;93.40;;;;;;5061339;28;20024;-73
2023/09/14 12:20:18;;;;;;;6.97;2.63;;;20.80;93.40;;;;;;5061160;28;20515;-73
2023/09/14 12:22:45;;;;;;;6.95;2.60;;;20.80;93.20;;;;;;5058253;28;20059;-72
2023/09/14 12:25:13;;;;;;;3.30;2.13;;;20.80;93.30;;;;;;5047300;28;20032;-72
2023/09/14 12:27:39;;;;;;;3.10;1.88;;;20.80;93.00;;;;;;5057680;28;20032;-72
2023/09/14 12:30:07;;;;;;;7.50;2.60;;;20.80;92.70;;;;;;5059913;28;20040;-73
2023/09/14 12:32:34;;;;;;;5.32;2.22;;;20.70;92.80;;;;;;5058725;28;20020;-72
2023/09/14 12:35:01;;;;;;;4.10;2.70;;;20.70;92.70;;;;;;5056650;28;20025;-72
2023/09/14 12:37:27;;;;;;;3.47;2.20;;;20.80;92.70;;;;;;5060784;28;20021;-72
2023/09/14 12:39:53;;;;;;;4.97;1.52;;;20.80;92.60;;;;;;5059005;28;20029;-72
2023/09/14 12:42:23;;;;;;;5.30;1.88;;;20.80;92.60;;;;;;5060886;28;20028;-72
2023/09/14 12:44:50;;;;;;;2.85;2.35;;;20.80;92.70;;;;;;5057571;28;20112;-72